SRD weather

Santa Rosa Del Sud Airport
Santa Rosa Del Sud, BolĂ­var Department, Colombia

Public forecast

Using degrees Celsius for public forecast. Weather courtesy of forecast.io.

METAR (pilot weather report)

Report is more than 6 hours old.

Closest report is Aguas Claras Airport, 44.7 nm (82.8 km) ENE. Retrieved 2014/03/27 14:00 UTC (5 years ago):

SKOC 271400Z 36012KT 9999 BKN020 19/16 A3017 RMK HZ

TAF (pilot weather forecast)

Forecast is more than 12 hours old.

Closest forecast is Palonegro Airport, 72.6 nm (134.4 km) SE. Retrieved 2019/03/24 12:00 UTC (17 hours ago):

TAF SKBG 241100Z 2412/2512 VRB02KT 9999 SCT015 SCT080 TEMPO 2412/2413 8000 VCFG -DZ SCT007 BECMG 2414/2416 32008KT TEMPO 2419/2422 7000 RA SCT013TCU TEMPO 2500/2503 8000 VCFG -DZ SCT012 BECMG 2504/2506 00000KT TEMPO 2509/2512 7000 VCFG SCT007 TX25/2419Z TN18/2511Z